sensor_id;sensor_type;location;lat;lon;timestamp;pressure;altitude;pressure_sealevel;temperature;humidity
70027;BME280;57506;50.092;15.804;2023-04-01T00:01:24;97464.69;;;8.40;100.00
70027;BME280;57506;50.092;15.804;2023-04-01T00:03:49;97432.28;;;8.17;100.00
70027;BME280;57506;50.092;15.804;2023-04-01T00:06:17;97455.44;;;8.36;100.00
70027;BME280;57506;50.092;15.804;2023-04-01T00:08:44;97427.88;;;8.22;100.00
70027;BME280;57506;50.092;15.804;2023-04-01T00:11:10;97414.75;;;8.14;100.00
70027;BME280;57506;50.092;15.804;2023-04-01T00:13:35;97437.59;;;8.23;100.00
70027;BME280;57506;50.092;15.804;2023-04-01T00:16:01;97429.59;;;8.17;100.00
70027;BME280;57506;50.092;15.804;2023-04-01T00:18:28;97416.91;;;8.05;100.00
70027;BME280;57506;50.092;15.804;2023-04-01T00:20:53;97413.34;;;8.12;100.00
70027;BME280;57506;50.092;15.804;2023-04-01T00:23:20;97415.72;;;8.20;100.00
70027;BME280;57506;50.092;15.804;2023-04-01T00:25:46;97425.41;;;8.21;100.00
70027;BME280;57506;50.092;15.804;2023-04-01T00:28:14;97393.63;;;7.99;100.00
70027;BME280;57506;50.092;15.804;2023-04-01T00:30:40;97411.53;;;8.05;100.00
70027;BME280;57506;50.092;15.804;2023-04-01T00:33:05;97418.56;;;8.06;100.00
70027;BME280;57506;50.092;15.804;2023-04-01T00:35:31;97417.06;;;8.11;100.00
70027;BME280;57506;50.092;15.804;2023-04-01T00:37:57;97416.03;;;8.12;100.00
70027;BME280;57506;50.092;15.804;2023-04-01T00:40:37;97415.78;;;8.13;100.00
70027;BME280;57506;50.092;15.804;2023-04-01T00:43:08;97423.34;;;8.23;100.00
70027;BME280;57506;50.092;15.804;2023-04-01T00:45:37;97416.03;;;8.12;100.00
70027;BME280;57506;50.092;15.804;2023-04-01T00:48:07;97424.75;;;8.07;100.00
70027;BME280;57506;50.092;15.804;2023-04-01T00:50:35;97400.66;;;8.00;100.00
70027;BME280;57506;50.092;15.804;2023-04-01T00:53:03;97411.97;;;8.02;100.00
70027;BME280;57506;50.092;15.804;2023-04-01T00:55:31;97422.97;;;8.19;100.00
70027;BME280;57506;50.092;15.804;2023-04-01T00:57:58;97412.16;;;8.26;100.00
70027;BME280;57506;50.092;15.804;2023-04-01T01:00:25;97430.94;;;8.26;100.00
70027;BME280;57506;50.092;15.804;2023-04-01T01:02:51;97412.88;;;8.15;100.00
70027;BME280;57506;50.092;15.804;2023-04-01T01:05:21;97413.44;;;8.23;100.00
70027;BME280;57506;50.092;15.804;2023-04-01T01:10:53;97420.34;;;8.31;100.00
70027;BME280;57506;50.092;15.804;2023-04-01T01:13:33;97428.72;;;8.23;100.00
70027;BME280;57506;50.092;15.804;2023-04-01T01:16:08;97419.00;;;8.22;100.00
70027;BME280;57506;50.092;15.804;2023-04-01T01:21:33;97441.19;;;8.35;100.00
70027;BME280;57506;50.092;15.804;2023-04-01T01:37:23;97404.41;;;8.18;100.00
70027;BME280;57506;50.092;15.804;2023-04-01T01:39:56;97398.16;;;8.24;100.00
70027;BME280;57506;50.092;15.804;2023-04-01T01:42:25;97390.75;;;8.19;100.00
70027;BME280;57506;50.092;15.804;2023-04-01T01:44:52;97398.16;;;8.24;100.00
70027;BME280;57506;50.092;15.804;2023-04-01T01:47:19;97397.34;;;8.23;100.00
70027;BME280;57506;50.092;15.804;2023-04-01T01:49:47;97405.94;;;8.32;100.00
70027;BME280;57506;50.092;15.804;2023-04-01T01:52:14;97423.16;;;8.43;100.00
70027;BME280;57506;50.092;15.804;2023-04-01T01:54:49;97406.53;;;8.34;100.00
70027;BME280;57506;50.092;15.804;2023-04-01T01:57:17;97411.44;;;8.37;100.00
70027;BME280;57506;50.092;15.804;2023-04-01T01:59:44;97407.16;;;8.29;100.00
70027;BME280;57506;50.092;15.804;2023-04-01T02:02:12;97412.06;;;8.39;100.00
70027;BME280;57506;50.092;15.804;2023-04-01T02:04:40;97401.53;;;8.37;100.00
70027;BME280;57506;50.092;15.804;2023-04-01T02:07:13;97414.75;;;8.39;100.00
70027;BME280;57506;50.092;15.804;2023-04-01T02:09:41;97401.75;;;8.36;100.00
70027;BME280;57506;50.092;15.804;2023-04-01T02:12:11;97404.25;;;8.31;100.00
70027;BME280;57506;50.092;15.804;2023-04-01T02:15:06;97409.28;;;8.27;100.00
70027;BME280;57506;50.092;15.804;2023-04-01T02:17:34;97405.66;;;8.40;100.00
70027;BME280;57506;50.092;15.804;2023-04-01T02:20:08;97404.38;;;8.43;100.00
70027;BME280;57506;50.092;15.804;2023-04-01T02:22:49;97398.47;;;8.34;100.00
70027;BME280;57506;50.092;15.804;2023-04-01T02:25:35;97405.25;;;8.36;100.00
70027;BME280;57506;50.092;15.804;2023-04-01T02:28:04;97421.66;;;8.47;100.00
70027;BME280;57506;50.092;15.804;2023-04-01T02:30:34;97424.00;;;8.43;100.00
70027;BME280;57506;50.092;15.804;2023-04-01T02:33:01;97416.75;;;8.44;100.00
70027;BME280;57506;50.092;15.804;2023-04-01T02:35:27;97418.09;;;8.34;100.00
70027;BME280;57506;50.092;15.804;2023-04-01T02:37:54;97429.72;;;8.47;100.00
70027;BME280;57506;50.092;15.804;2023-04-01T02:40:20;97425.38;;;8.46;100.00
70027;BME280;57506;50.092;15.804;2023-04-01T02:42:46;97429.50;;;8.48;100.00
70027;BME280;57506;50.092;15.804;2023-04-01T02:45:13;97426.28;;;8.39;100.00
70027;BME280;57506;50.092;15.804;2023-04-01T02:47:38;97429.94;;;8.45;100.00
70027;BME280;57506;50.092;15.804;2023-04-01T02:50:05;97436.66;;;8.54;100.00
70027;BME280;57506;50.092;15.804;2023-04-01T02:52:31;97431.44;;;8.41;100.00
70027;BME280;57506;50.092;15.804;2023-04-01T02:54:57;97415.91;;;8.25;100.00
70027;BME280;57506;50.092;15.804;2023-04-01T02:57:23;97433.38;;;8.34;100.00
70027;BME280;57506;50.092;15.804;2023-04-01T02:59:49;97435.59;;;8.37;100.00
70027;BME280;57506;50.092;15.804;2023-04-01T03:02:15;97431.28;;;8.36;100.00
70027;BME280;57506;50.092;15.804;2023-04-01T03:04:41;97435.81;;;8.35;100.00
70027;BME280;57506;50.092;15.804;2023-04-01T03:07:08;97441.28;;;8.47;100.00
70027;BME280;57506;50.092;15.804;2023-04-01T03:09:36;97452.84;;;8.48;100.00
70027;BME280;57506;50.092;15.804;2023-04-01T03:12:01;97436.00;;;8.40;100.00
70027;BME280;57506;50.092;15.804;2023-04-01T03:14:27;97442.25;;;8.34;100.00
70027;BME280;57506;50.092;15.804;2023-04-01T03:16:52;97451.28;;;8.40;100.00
70027;BME280;57506;50.092;15.804;2023-04-01T03:19:18;97446.34;;;8.37;100.00
70027;BME280;57506;50.092;15.804;2023-04-01T03:21:43;97444.31;;;8.32;100.00
70027;BME280;57506;50.092;15.804;2023-04-01T03:24:09;97453.78;;;8.35;100.00
70027;BME280;57506;50.092;15.804;2023-04-01T03:26:34;97448.31;;;8.23;100.00
70027;BME280;57506;50.092;15.804;2023-04-01T03:29:00;97448.91;;;8.25;100.00
70027;BME280;57506;50.092;15.804;2023-04-01T03:31:26;97422.09;;;8.00;100.00
70027;BME280;57506;50.092;15.804;2023-04-01T03:33:51;97406.63;;;8.02;100.00
70027;BME280;57506;50.092;15.804;2023-04-01T03:36:17;97410.84;;;7.92;100.00
70027;BME280;57506;50.092;15.804;2023-04-01T03:38:44;97410.47;;;7.88;100.00
70027;BME280;57506;50.092;15.804;2023-04-01T03:41:17;97400.16;;;7.85;100.00
70027;BME280;57506;50.092;15.804;2023-04-01T03:43:43;97407.19;;;7.86;100.00
70027;BME280;57506;50.092;15.804;2023-04-01T03:46:09;97409.13;;;7.97;100.00
70027;BME280;57506;50.092;15.804;2023-04-01T03:48:34;97391.91;;;7.87;100.00
70027;BME280;57506;50.092;15.804;2023-04-01T03:51:00;97384.00;;;7.73;100.00
70027;BME280;57506;50.092;15.804;2023-04-01T03:53:25;97402.25;;;7.83;100.00
70027;BME280;57506;50.092;15.804;2023-04-01T03:55:52;97390.69;;;7.83;100.00
70027;BME280;57506;50.092;15.804;2023-04-01T03:58:18;97388.31;;;7.75;100.00
70027;BME280;57506;50.092;15.804;2023-04-01T04:00:43;97380.69;;;7.71;100.00
70027;BME280;57506;50.092;15.804;2023-04-01T04:03:09;97377.25;;;7.64;100.00
70027;BME280;57506;50.092;15.804;2023-04-01T04:05:34;97383.91;;;7.80;100.00
70027;BME280;57506;50.092;15.804;2023-04-01T04:08:00;97387.88;;;7.78;100.00
70027;BME280;57506;50.092;15.804;2023-04-01T04:10:25;97391.97;;;7.80;100.00
70027;BME280;57506;50.092;15.804;2023-04-01T04:12:51;97386.59;;;7.80;100.00
70027;BME280;57506;50.092;15.804;2023-04-01T04:15:17;97379.00;;;7.77;100.00
70027;BME280;57506;50.092;15.804;2023-04-01T04:17:44;97395.72;;;7.79;100.00
70027;BME280;57506;50.092;15.804;2023-04-01T04:20:10;97390.91;;;7.81;100.00
70027;BME280;57506;50.092;15.804;2023-04-01T04:22:35;97382.56;;;7.71;100.00
70027;BME280;57506;50.092;15.804;2023-04-01T04:25:01;97392.78;;;7.81;100.00
70027;BME280;57506;50.092;15.804;2023-04-01T04:27:26;97375.94;;;7.73;100.00
70027;BME280;57506;50.092;15.804;2023-04-01T04:29:51;97390.47;;;7.84;100.00
70027;BME280;57506;50.092;15.804;2023-04-01T04:32:17;97374.31;;;7.72;100.00
70027;BME280;57506;50.092;15.804;2023-04-01T04:34:42;97368.94;;;7.72;100.00
70027;BME280;57506;50.092;15.804;2023-04-01T04:37:08;97373.44;;;7.79;100.00
70027;BME280;57506;50.092;15.804;2023-04-01T04:39:33;97371.41;;;7.74;100.00
70027;BME280;57506;50.092;15.804;2023-04-01T04:41:59;97375.94;;;7.73;100.00
70027;BME280;57506;50.092;15.804;2023-04-01T04:44:24;97374.34;;;7.66;100.00
70027;BME280;57506;50.092;15.804;2023-04-01T04:46:50;97376.94;;;7.79;100.00
70027;BME280;57506;50.092;15.804;2023-04-01T04:49:15;97371.22;;;7.69;100.00
70027;BME280;57506;50.092;15.804;2023-04-01T04:51:41;97374.34;;;7.66;100.00
70027;BME280;57506;50.092;15.804;2023-04-01T04:54:07;97377.28;;;7.83;100.00
70027;BME280;57506;50.092;15.804;2023-04-01T04:56:33;97385.41;;;7.76;100.00
70027;BME280;57506;50.092;15.804;2023-04-01T04:58:59;97379.00;;;7.77;100.00
70027;BME280;57506;50.092;15.804;2023-04-01T05:01:24;97387.06;;;7.77;100.00
70027;BME280;57506;50.092;15.804;2023-04-01T05:03:50;97384.38;;;7.77;100.00
70027;BME280;57506;50.092;15.804;2023-04-01T05:06:17;97387.88;;;7.78;100.00
70027;BME280;57506;50.092;15.804;2023-04-01T05:08:44;97373.19;;;7.80;100.00
70027;BME280;57506;50.092;15.804;2023-04-01T05:11:13;97382.00;;;7.87;100.00
70027;BME280;57506;50.092;15.804;2023-04-01T05:13:40;97387.81;;;7.84;100.00
70027;BME280;57506;50.092;15.804;2023-04-01T05:16:10;97388.78;;;7.90;100.00
70027;BME280;57506;50.092;15.804;2023-04-01T05:18:36;97398.41;;;7.97;100.00
70027;BME280;57506;50.092;15.804;2023-04-01T05:21:02;97385.91;;;7.91;100.00
70027;BME280;57506;50.092;15.804;2023-04-01T05:23:27;97377.69;;;7.86;100.00
70027;BME280;57506;50.092;15.804;2023-04-01T05:25:53;97379.06;;;7.95;100.00
70027;BME280;57506;50.092;15.804;2023-04-01T05:28:19;97393.25;;;7.96;100.00
70027;BME280;57506;50.092;15.804;2023-04-01T05:30:45;97395.28;;;8.00;100.00
70027;BME280;57506;50.092;15.804;2023-04-01T05:33:11;97406.63;;;8.02;100.00
70027;BME280;57506;50.092;15.804;2023-04-01T05:35:37;97406.66;;;7.96;100.00
70027;BME280;57506;50.092;15.804;2023-04-01T05:38:03;97409.13;;;7.97;100.00
70027;BME280;57506;50.092;15.804;2023-04-01T05:40:29;97403.28;;;8.07;100.00
70027;BME280;57506;50.092;15.804;2023-04-01T05:42:55;97409.84;;;8.11;100.00
70027;BME280;57506;50.092;15.804;2023-04-01T05:45:21;97413.34;;;8.12;100.00
70027;BME280;57506;50.092;15.804;2023-04-01T05:47:47;97400.44;;;8.02;100.00
70027;BME280;57506;50.092;15.804;2023-04-01T05:50:13;97410.94;;;8.03;100.00
70027;BME280;57506;50.092;15.804;2023-04-01T05:52:38;97416.47;;;8.08;100.00
70027;BME280;57506;50.092;15.804;2023-04-01T05:55:05;97403.06;;;8.08;100.00
70027;BME280;57506;50.092;15.804;2023-04-01T05:57:31;97411.84;;;8.16;100.00
70027;BME280;57506;50.092;15.804;2023-04-01T05:59:56;97400.66;;;8.00;100.00
70027;BME280;57506;50.092;15.804;2023-04-01T06:02:22;97409.03;;;8.11;100.00
70027;BME280;57506;50.092;15.804;2023-04-01T06:04:47;97414.97;;;8.13;100.00
70027;BME280;57506;50.092;15.804;2023-04-01T06:07:17;97400.38;;;8.08;100.00
70027;BME280;57506;50.092;15.804;2023-04-01T06:09:44;97411.84;;;8.16;100.00
70027;BME280;57506;50.092;15.804;2023-04-01T06:12:37;97418.34;;;8.26;100.00
70027;BME280;57506;50.092;15.804;2023-04-01T06:26:24;97431.72;;;8.51;100.00
70027;BME280;57506;50.092;15.804;2023-04-01T06:37:44;97439.03;;;8.62;100.00
70027;BME280;57506;50.092;15.804;2023-04-01T06:40:44;97460.63;;;8.74;100.00
70027;BME280;57506;50.092;15.804;2023-04-01T06:46:11;97462.81;;;8.77;100.00
70027;BME280;57506;50.092;15.804;2023-04-01T06:48:48;97475.75;;;8.87;100.00
70027;BME280;57506;50.092;15.804;2023-04-01T06:54:06;97485.00;;;8.91;100.00
70027;BME280;57506;50.092;15.804;2023-04-01T06:56:36;97492.75;;;8.99;100.00
70027;BME280;57506;50.092;15.804;2023-04-01T07:02:12;97496.91;;;8.95;100.00
70027;BME280;57506;50.092;15.804;2023-04-01T07:04:46;97495.44;;;8.99;100.00
70027;BME280;57506;50.092;15.804;2023-04-01T07:10:04;97491.69;;;9.18;100.00
70027;BME280;57506;50.092;15.804;2023-04-01T07:12:49;97497.31;;;9.28;100.00
70027;BME280;57506;50.092;15.804;2023-04-01T07:15:18;97515.84;;;9.36;100.00
70027;BME280;57506;50.092;15.804;2023-04-01T07:17:46;97513.31;;;9.41;100.00
70027;BME280;57506;50.092;15.804;2023-04-01T07:20:38;97516.22;;;9.40;100.00
70027;BME280;57506;50.092;15.804;2023-04-01T07:23:16;97526.25;;;9.44;100.00
70027;BME280;57506;50.092;15.804;2023-04-01T07:25:47;97532.53;;;9.57;100.00
70027;BME280;57506;50.092;15.804;2023-04-01T07:28:16;97509.56;;;9.84;100.00
70027;BME280;57506;50.092;15.804;2023-04-01T07:30:58;97533.88;;;9.77;100.00
70027;BME280;57506;50.092;15.804;2023-04-01T07:41:27;97550.16;;;9.82;100.00
70027;BME280;57506;50.092;15.804;2023-04-01T07:44:36;97548.75;;;9.80;100.00
70027;BME280;57506;50.092;15.804;2023-04-01T07:52:43;97570.25;;;10.10;100.00
70027;BME280;57506;50.092;15.804;2023-04-01T07:58:29;97585.13;;;10.12;100.00
70027;BME280;57506;50.092;15.804;2023-04-01T08:01:13;97586.50;;;10.03;100.00
70027;BME280;57506;50.092;15.804;2023-04-01T08:09:02;97590.47;;;10.42;100.00
70027;BME280;57506;50.092;15.804;2023-04-01T08:14:43;97610.50;;;10.35;100.00
70027;BME280;57506;50.092;15.804;2023-04-01T08:17:13;97620.47;;;10.46;100.00
70027;BME280;57506;50.092;15.804;2023-04-01T08:22:41;97631.81;;;10.48;100.00
70027;BME280;57506;50.092;15.804;2023-04-01T08:25:16;97635.50;;;10.65;100.00
70027;BME280;57506;50.092;15.804;2023-04-01T08:27:55;97637.59;;;10.75;100.00
70027;BME280;57506;50.092;15.804;2023-04-01T08:30:31;97631.06;;;10.94;100.00
70027;BME280;57506;50.092;15.804;2023-04-01T08:33:09;97630.47;;;10.80;100.00
70027;BME280;57506;50.092;15.804;2023-04-01T08:38:36;97630.13;;;11.00;100.00
70027;BME280;57506;50.092;15.804;2023-04-01T08:44:38;97640.53;;;10.73;100.00
70027;BME280;57506;50.092;15.804;2023-04-01T08:55:12;97646.94;;;10.49;100.00
70027;BME280;57506;50.092;15.804;2023-04-01T09:03:02;97648.44;;;10.45;100.00
70027;BME280;57506;50.092;15.804;2023-04-01T09:08:28;97651.56;;;10.30;100.00
70027;BME280;57506;50.092;15.804;2023-04-01T09:17:34;97654.88;;;10.44;100.00
70027;BME280;57506;50.092;15.804;2023-04-01T09:20:34;97658.41;;;10.56;100.00
70027;BME280;57506;50.092;15.804;2023-04-01T09:23:44;97661.59;;;10.53;100.00
70027;BME280;57506;50.092;15.804;2023-04-01T09:32:42;97685.19;;;10.39;100.00
70027;BME280;57506;50.092;15.804;2023-04-01T09:34:57;97677.69;;;10.41;100.00
70027;BME280;57506;50.092;15.804;2023-04-01T09:37:34;97689.50;;;10.40;100.00
70027;BME280;57506;50.092;15.804;2023-04-01T09:47:56;97670.53;;;10.05;100.00
70027;BME280;57506;50.092;15.804;2023-04-01T10:21:59;97689.28;;;11.53;100.00
70027;BME280;57506;50.092;15.804;2023-04-01T10:47:19;97663.44;;;12.21;100.00
70027;BME280;57506;50.092;15.804;2023-04-01T11:01:07;97653.78;;;12.87;100.00
70027;BME280;57506;50.092;15.804;2023-04-01T11:13:11;97642.53;;;13.12;100.00
70027;BME280;57506;50.092;15.804;2023-04-01T11:17:07;97639.19;;;13.60;98.63
70027;BME280;57506;50.092;15.804;2023-04-01T11:30:07;97642.63;;;12.67;100.00
70027;BME280;57506;50.092;15.804;2023-04-01T11:32:50;97664.19;;;11.65;100.00
70027;BME280;57506;50.092;15.804;2023-04-01T11:43:54;97633.19;;;10.09;100.00
70027;BME280;57506;50.092;15.804;2023-04-01T11:46:36;97622.03;;;9.94;100.00
70027;BME280;57506;50.092;15.804;2023-04-01T11:57:35;97627.84;;;10.39;100.00
70027;BME280;57506;50.092;15.804;2023-04-01T12:09:04;97641.06;;;11.57;100.00
70027;BME280;57506;50.092;15.804;2023-04-01T12:11:44;97657.84;;;11.59;100.00
70027;BME280;57506;50.092;15.804;2023-04-01T12:19:21;97675.59;;;11.32;100.00
70027;BME280;57506;50.092;15.804;2023-04-01T12:22:12;97681.97;;;10.72;100.00
70027;BME280;57506;50.092;15.804;2023-04-01T12:27:24;97659.66;;;10.12;100.00
70027;BME280;57506;50.092;15.804;2023-04-01T12:30:18;97636.81;;;10.21;100.00
70027;BME280;57506;50.092;15.804;2023-04-01T12:38:35;97624.38;;;11.72;100.00
70027;BME280;57506;50.092;15.804;2023-04-01T12:41:35;97661.44;;;11.88;100.00
70027;BME280;57506;50.092;15.804;2023-04-01T12:55:45;97675.63;;;11.95;100.00
70027;BME280;57506;50.092;15.804;2023-04-01T12:58:18;97685.94;;;11.98;100.00
70027;BME280;57506;50.092;15.804;2023-04-01T13:01:29;97671.22;;;12.17;100.00
70027;BME280;57506;50.092;15.804;2023-04-01T13:15:14;97682.38;;;12.38;100.00
70027;BME280;57506;50.092;15.804;2023-04-01T13:17:53;97679.38;;;12.51;100.00
70027;BME280;57506;50.092;15.804;2023-04-01T13:20:43;97681.44;;;12.60;100.00
70027;BME280;57506;50.092;15.804;2023-04-01T13:39:02;97682.78;;;12.75;100.00
70027;BME280;57506;50.092;15.804;2023-04-01T13:41:35;97691.47;;;12.93;100.00
70027;BME280;57506;50.092;15.804;2023-04-01T13:44:12;97685.81;;;13.12;100.00
70027;BME280;57506;50.092;15.804;2023-04-01T13:49:52;97685.59;;;13.69;100.00
70027;BME280;57506;50.092;15.804;2023-04-01T14:01:06;97686.03;;;14.26;93.86
70027;BME280;57506;50.092;15.804;2023-04-01T14:14:36;97683.97;;;14.11;92.37
70027;BME280;57506;50.092;15.804;2023-04-01T14:40:05;97700.75;;;13.70;79.76
70027;BME280;57506;50.092;15.804;2023-04-01T14:51:29;97693.19;;;13.16;88.61
70027;BME280;57506;50.092;15.804;2023-04-01T14:54:13;97690.09;;;13.24;88.78
70027;BME280;57506;50.092;15.804;2023-04-01T14:56:51;97697.28;;;13.36;84.62
70027;BME280;57506;50.092;15.804;2023-04-01T14:59:28;97688.81;;;13.49;84.31
70027;BME280;57506;50.092;15.804;2023-04-01T15:02:14;97686.13;;;13.49;82.43
70027;BME280;57506;50.092;15.804;2023-04-01T15:18:23;97703.34;;;12.92;92.67
70027;BME280;57506;50.092;15.804;2023-04-01T15:21:49;97695.56;;;12.96;98.47
70027;BME280;57506;50.092;15.804;2023-04-01T15:24:22;97701.41;;;13.21;95.44
70027;BME280;57506;50.092;15.804;2023-04-01T15:45:51;97718.78;;;12.47;99.49
70027;BME280;57506;50.092;15.804;2023-04-01T15:56:41;97725.66;;;11.39;100.00
70027;BME280;57506;50.092;15.804;2023-04-01T15:59:24;97721.44;;;11.43;100.00
70027;BME280;57506;50.092;15.804;2023-04-01T16:02:07;97727.53;;;11.50;100.00
70027;BME280;57506;50.092;15.804;2023-04-01T16:10:38;97743.00;;;11.90;100.00
70027;BME280;57506;50.092;15.804;2023-04-01T16:16:00;97741.59;;;11.99;100.00
70027;BME280;57506;50.092;15.804;2023-04-01T16:26:28;97741.63;;;11.52;100.00
70027;BME280;57506;50.092;15.804;2023-04-01T16:29:12;97735.63;;;11.39;100.00
70027;BME280;57506;50.092;15.804;2023-04-01T16:32:38;97750.66;;;11.35;100.00
70027;BME280;57506;50.092;15.804;2023-04-01T16:34:44;97744.91;;;11.31;100.00
70027;BME280;57506;50.092;15.804;2023-04-01T16:37:17;97743.63;;;11.34;100.00
70027;BME280;57506;50.092;15.804;2023-04-01T16:42:40;97764.00;;;11.30;100.00
70027;BME280;57506;50.092;15.804;2023-04-01T16:47:59;97754.13;;;11.00;100.00
70027;BME280;57506;50.092;15.804;2023-04-01T16:50:55;97757.59;;;10.89;100.00
70027;BME280;57506;50.092;15.804;2023-04-01T16:53:47;97765.13;;;10.87;100.00
70027;BME280;57506;50.092;15.804;2023-04-01T17:01:49;97776.38;;;10.96;100.00
70027;BME280;57506;50.092;15.804;2023-04-01T17:04:43;97771.56;;;10.98;100.00
70027;BME280;57506;50.092;15.804;2023-04-01T17:07:17;97784.66;;;10.82;100.00
70027;BME280;57506;50.092;15.804;2023-04-01T17:12:37;97784.66;;;10.52;100.00
70027;BME280;57506;50.092;15.804;2023-04-01T17:15:17;97792.91;;;10.39;100.00
70027;BME280;57506;50.092;15.804;2023-04-01T17:21:02;97812.50;;;10.46;100.00
70027;BME280;57506;50.092;15.804;2023-04-01T17:23:45;97809.53;;;10.36;100.00
70027;BME280;57506;50.092;15.804;2023-04-01T17:29:20;97818.13;;;10.27;100.00
70027;BME280;57506;50.092;15.804;2023-04-01T17:34:57;97812.00;;;10.20;100.00
70027;BME280;57506;50.092;15.804;2023-04-01T17:55:25;97838.88;;;10.01;100.00
70027;BME280;57506;50.092;15.804;2023-04-01T17:57:51;97840.56;;;9.77;100.00
70027;BME280;57506;50.092;15.804;2023-04-01T18:00:29;97852.94;;;9.85;100.00
70027;BME280;57506;50.092;15.804;2023-04-01T18:03:36;97850.88;;;9.80;100.00
70027;BME280;57506;50.092;15.804;2023-04-01T18:17:30;97867.75;;;9.44;100.00
70027;BME280;57506;50.092;15.804;2023-04-01T18:20:11;97879.75;;;9.42;100.00
70027;BME280;57506;50.092;15.804;2023-04-01T18:28:15;97879.09;;;9.22;100.00
70027;BME280;57506;50.092;15.804;2023-04-01T18:30:43;97884.06;;;9.25;100.00
70027;BME280;57506;50.092;15.804;2023-04-01T18:33:23;97891.88;;;9.26;100.00
70027;BME280;57506;50.092;15.804;2023-04-01T18:46:38;97910.25;;;8.98;100.00
70027;BME280;57506;50.092;15.804;2023-04-01T18:49:27;97909.00;;;8.94;100.00
70027;BME280;57506;50.092;15.804;2023-04-01T18:51:58;97908.44;;;8.92;100.00
70027;BME280;57506;50.092;15.804;2023-04-01T18:54:45;97906.78;;;8.91;100.00
70027;BME280;57506;50.092;15.804;2023-04-01T18:57:14;97909.69;;;8.89;100.00
70027;BME280;57506;50.092;15.804;2023-04-01T18:59:42;97909.47;;;8.91;100.00
70027;BME280;57506;50.092;15.804;2023-04-01T19:10:17;97921.00;;;8.98;100.00
70027;BME280;57506;50.092;15.804;2023-04-01T19:15:56;97930.69;;;8.99;100.00
70027;BME280;57506;50.092;15.804;2023-04-01T19:18:41;97920.59;;;8.94;100.00
70027;BME280;57506;50.092;15.804;2023-04-01T19:21:43;97907.56;;;8.98;100.00
70027;BME280;57506;50.092;15.804;2023-04-01T19:27:14;97917.88;;;9.01;100.00
70027;BME280;57506;50.092;15.804;2023-04-01T19:29:51;97928.41;;;9.02;100.00
70027;BME280;57506;50.092;15.804;2023-04-01T19:32:51;97932.50;;;9.11;100.00
70027;BME280;57506;50.092;15.804;2023-04-01T19:46:32;97937.97;;;9.30;100.00
70027;BME280;57506;50.092;15.804;2023-04-01T19:52:04;97948.00;;;9.09;100.00
70027;BME280;57506;50.092;15.804;2023-04-01T20:16:53;97976.56;;;9.04;100.00
70027;BME280;57506;50.092;15.804;2023-04-01T20:28:14;97984.25;;;8.94;100.00
70027;BME280;57506;50.092;15.804;2023-04-01T20:31:08;97988.00;;;8.93;100.00
70027;BME280;57506;50.092;15.804;2023-04-01T20:51:22;97992.97;;;8.89;100.00
70027;BME280;57506;50.092;15.804;2023-04-01T21:09:34;97986.38;;;8.78;100.00
70027;BME280;57506;50.092;15.804;2023-04-01T21:14:45;98004.75;;;8.82;100.00
70027;BME280;57506;50.092;15.804;2023-04-01T21:17:22;97995.59;;;9.02;100.00
70027;BME280;57506;50.092;15.804;2023-04-01T21:25:26;97998.41;;;8.69;100.00
70027;BME280;57506;50.092;15.804;2023-04-01T21:31:12;98007.22;;;8.83;100.00
70027;BME280;57506;50.092;15.804;2023-04-01T21:44:20;98017.84;;;8.58;100.00
70027;BME280;57506;50.092;15.804;2023-04-01T21:50:00;98012.47;;;8.58;100.00
70027;BME280;57506;50.092;15.804;2023-04-01T22:01:31;98009.38;;;8.48;100.00
70027;BME280;57506;50.092;15.804;2023-04-01T22:06:53;98021.56;;;8.57;100.00
70027;BME280;57506;50.092;15.804;2023-04-01T22:15:29;98016.41;;;8.49;100.00
70027;BME280;57506;50.092;15.804;2023-04-01T22:18:05;98018.72;;;8.39;100.00
70027;BME280;57506;50.092;15.804;2023-04-01T22:20:46;98011.25;;;8.28;100.00
70027;BME280;57506;50.092;15.804;2023-04-01T22:31:14;98007.94;;;8.13;100.00
70027;BME280;57506;50.092;15.804;2023-04-01T22:39:01;98005.91;;;8.08;100.00
70027;BME280;57506;50.092;15.804;2023-04-01T22:43:57;98002.56;;;8.13;100.00
70027;BME280;57506;50.092;15.804;2023-04-01T22:46:30;98000.94;;;8.12;100.00
70027;BME280;57506;50.092;15.804;2023-04-01T22:51:40;98003.00;;;8.10;100.00
70027;BME280;57506;50.092;15.804;2023-04-01T22:54:29;98004.44;;;8.05;100.00
70027;BME280;57506;50.092;15.804;2023-04-01T22:57:04;97991.03;;;7.99;100.00
70027;BME280;57506;50.092;15.804;2023-04-01T22:59:45;98010.84;;;8.04;100.00
70027;BME280;57506;50.092;15.804;2023-04-01T23:02:18;98000.72;;;8.00;100.00
70027;BME280;57506;50.092;15.804;2023-04-01T23:04:51;97999.09;;;7.92;100.00
70027;BME280;57506;50.092;15.804;2023-04-01T23:07:38;97993.53;;;7.94;100.00
70027;BME280;57506;50.092;15.804;2023-04-01T23:10:26;97999.47;;;7.96;100.00
70027;BME280;57506;50.092;15.804;2023-04-01T23:12:57;98001.38;;;7.95;100.00
70027;BME280;57506;50.092;15.804;2023-04-01T23:15:24;97999.72;;;7.94;100.00
70027;BME280;57506;50.092;15.804;2023-04-01T23:25:59;97992.47;;;7.88;100.00
70027;BME280;57506;50.092;15.804;2023-04-01T23:30:51;98007.34;;;7.91;100.00
70027;BME280;57506;50.092;15.804;2023-04-01T23:33:30;98009.19;;;7.90;100.00
70027;BME280;57506;50.092;15.804;2023-04-01T23:36:10;98006.91;;;7.87;100.00
70027;BME280;57506;50.092;15.804;2023-04-01T23:38:42;98006.69;;;7.82;100.00
70027;BME280;57506;50.092;15.804;2023-04-01T23:41:25;97993.91;;;7.71;100.00
70027;BME280;57506;50.092;15.804;2023-04-01T23:44:00;97995.56;;;7.72;100.00
70027;BME280;57506;50.092;15.804;2023-04-01T23:46:29;97991.84;;;7.66;100.00
70027;BME280;57506;50.092;15.804;2023-04-01T23:48:55;98004.63;;;7.71;100.00